sensor_id;sensor_type;location;lat;lon;timestamp;pressure;altitude;pressure_sealevel;temperature;humidity
64933;BME280;51446;53.850;10.662;2023-04-06T00:00:29;101980.94;;;0.67;100.00
64933;BME280;51446;53.850;10.662;2023-04-06T00:02:54;101981.63;;;0.65;100.00
64933;BME280;51446;53.850;10.662;2023-04-06T00:05:20;101984.88;;;0.62;100.00
64933;BME280;51446;53.850;10.662;2023-04-06T00:07:46;101980.50;;;0.61;100.00
64933;BME280;51446;53.850;10.662;2023-04-06T00:10:12;101978.75;;;0.84;100.00
64933;BME280;51446;53.850;10.662;2023-04-06T00:12:37;101974.88;;;0.67;100.00
64933;BME280;51446;53.850;10.662;2023-04-06T00:15:02;101975.31;;;0.61;100.00
64933;BME280;51446;53.850;10.662;2023-04-06T00:17:30;101971.75;;;0.59;100.00
64933;BME280;51446;53.850;10.662;2023-04-06T00:19:55;101980.16;;;0.68;100.00
64933;BME280;51446;53.850;10.662;2023-04-06T00:22:21;101970.72;;;0.69;100.00
64933;BME280;51446;53.850;10.662;2023-04-06T00:24:46;101973.31;;;0.69;100.00
64933;BME280;51446;53.850;10.662;2023-04-06T00:27:11;101971.97;;;0.62;100.00
64933;BME280;51446;53.850;10.662;2023-04-06T00:29:36;101974.16;;;0.46;100.00
64933;BME280;51446;53.850;10.662;2023-04-06T00:32:02;101979.94;;;0.31;100.00
64933;BME280;51446;53.850;10.662;2023-04-06T00:34:27;101985.09;;;0.31;100.00
64933;BME280;51446;53.850;10.662;2023-04-06T00:36:52;101975.72;;;0.44;100.00
64933;BME280;51446;53.850;10.662;2023-04-06T00:39:18;101974.38;;;0.49;100.00
64933;BME280;51446;53.850;10.662;2023-04-06T00:41:49;101967.91;;;0.54;100.00
64933;BME280;51446;53.850;10.662;2023-04-06T00:44:15;101967.44;;;0.48;100.00
64933;BME280;51446;53.850;10.662;2023-04-06T00:46:41;101963.63;;;0.55;100.00
64933;BME280;51446;53.850;10.662;2023-04-06T00:49:06;101960.16;;;0.66;100.00
64933;BME280;51446;53.850;10.662;2023-04-06T00:51:31;101961.88;;;0.77;100.00
64933;BME280;51446;53.850;10.662;2023-04-06T00:53:56;101959.97;;;0.75;100.00
64933;BME280;51446;53.850;10.662;2023-04-06T00:56:22;101964.13;;;0.61;100.00
64933;BME280;51446;53.850;10.662;2023-04-06T00:58:48;101979.72;;;0.62;100.00
64933;BME280;51446;53.850;10.662;2023-04-06T01:01:14;101970.38;;;0.64;100.00
64933;BME280;51446;53.850;10.662;2023-04-06T01:03:39;101965.81;;;0.72;100.00
64933;BME280;51446;53.850;10.662;2023-04-06T01:06:05;101971.97;;;0.62;100.00
64933;BME280;51446;53.850;10.662;2023-04-06T01:08:30;101967.91;;;0.54;100.00
64933;BME280;51446;53.850;10.662;2023-04-06T01:10:55;101975.75;;;0.56;100.00
64933;BME280;51446;53.850;10.662;2023-04-06T01:13:20;101976.41;;;0.53;100.00
64933;BME280;51446;53.850;10.662;2023-04-06T01:15:46;101967.88;;;0.42;100.00
64933;BME280;51446;53.850;10.662;2023-04-06T01:18:12;101970.22;;;0.39;100.00
64933;BME280;51446;53.850;10.662;2023-04-06T01:20:37;101972.38;;;0.45;100.00
64933;BME280;51446;53.850;10.662;2023-04-06T01:23:02;101970.81;;;0.47;100.00
64933;BME280;51446;53.850;10.662;2023-04-06T01:25:28;101966.63;;;0.49;100.00
64933;BME280;51446;53.850;10.662;2023-04-06T01:27:53;101966.03;;;0.29;100.00
64933;BME280;51446;53.850;10.662;2023-04-06T01:30:18;101967.59;;;0.27;100.00
64933;BME280;51446;53.850;10.662;2023-04-06T01:32:44;101960.53;;;0.25;100.00
64933;BME280;51446;53.850;10.662;2023-04-06T01:35:09;101971.78;;;0.37;100.00
64933;BME280;51446;53.850;10.662;2023-04-06T01:37:35;101966.72;;;0.39;100.00
64933;BME280;51446;53.850;10.662;2023-04-06T01:40:00;101960.38;;;0.45;100.00
64933;BME280;51446;53.850;10.662;2023-04-06T01:42:25;101961.75;;;0.52;100.00
64933;BME280;51446;53.850;10.662;2023-04-06T01:44:51;101953.25;;;0.31;100.00
64933;BME280;51446;53.850;10.662;2023-04-06T01:47:16;101950.69;;;0.43;100.00
64933;BME280;51446;53.850;10.662;2023-04-06T01:49:42;101952.31;;;0.52;100.00
64933;BME280;51446;53.850;10.662;2023-04-06T01:52:07;101950.81;;;0.44;100.00
64933;BME280;51446;53.850;10.662;2023-04-06T01:54:32;101945.66;;;0.56;100.00
64933;BME280;51446;53.850;10.662;2023-04-06T01:56:57;101950.47;;;0.40;100.00
64933;BME280;51446;53.850;10.662;2023-04-06T01:59:22;101944.56;;;0.19;100.00
64933;BME280;51446;53.850;10.662;2023-04-06T02:01:48;101945.81;;;0.24;100.00
64933;BME280;51446;53.850;10.662;2023-04-06T02:04:13;101952.31;;;0.19;100.00
64933;BME280;51446;53.850;10.662;2023-04-06T02:06:39;101946.03;;;0.15;100.00
64933;BME280;51446;53.850;10.662;2023-04-06T02:09:05;101954.00;;;0.18;100.00
64933;BME280;51446;53.850;10.662;2023-04-06T02:11:30;101946.09;;;0.05;100.00
64933;BME280;51446;53.850;10.662;2023-04-06T02:13:56;101950.22;;;0.03;100.00
64933;BME280;51446;53.850;10.662;2023-04-06T02:16:21;101948.16;;;0.09;100.00
64933;BME280;51446;53.850;10.662;2023-04-06T02:18:47;101951.03;;;0.02;100.00
64933;BME280;51446;53.850;10.662;2023-04-06T02:21:12;101951.31;;;0.16;100.00
64933;BME280;51446;53.850;10.662;2023-04-06T02:23:37;101939.34;;;0.29;100.00
64933;BME280;51446;53.850;10.662;2023-04-06T02:26:03;101946.47;;;0.43;100.00
64933;BME280;51446;53.850;10.662;2023-04-06T02:28:28;101948.25;;;0.56;100.00
64933;BME280;51446;53.850;10.662;2023-04-06T02:30:53;101943.66;;;0.52;100.00
64933;BME280;51446;53.850;10.662;2023-04-06T02:33:18;101946.09;;;0.39;100.00
64933;BME280;51446;53.850;10.662;2023-04-06T02:35:44;101944.06;;;0.34;100.00
64933;BME280;51446;53.850;10.662;2023-04-06T02:38:10;101943.38;;;0.25;100.00
64933;BME280;51446;53.850;10.662;2023-04-06T02:40:35;101947.53;;;0.23;100.00
64933;BME280;51446;53.850;10.662;2023-04-06T02:43:01;101948.66;;;0.39;100.00
64933;BME280;51446;53.850;10.662;2023-04-06T02:45:26;101943.25;;;0.24;100.00
64933;BME280;51446;53.850;10.662;2023-04-06T02:47:51;101940.31;;;0.19;100.00
64933;BME280;51446;53.850;10.662;2023-04-06T02:50:16;101948.16;;;0.09;100.00
64933;BME280;51446;53.850;10.662;2023-04-06T02:52:42;101942.72;;;0.06;100.00
64933;BME280;51446;53.850;10.662;2023-04-06T02:55:07;101945.44;;;0.07;100.00
64933;BME280;51446;53.850;10.662;2023-04-06T02:57:33;101943.53;;;0.05;100.00
64933;BME280;51446;53.850;10.662;2023-04-06T02:59:58;101950.03;;;0.11;100.00
64933;BME280;51446;53.850;10.662;2023-04-06T03:02:23;101949.47;;;0.38;100.00
64933;BME280;51446;53.850;10.662;2023-04-06T03:04:48;101941.41;;;0.11;100.00
64933;BME280;51446;53.850;10.662;2023-04-06T03:07:14;101933.03;;;-0.09;100.00
64933;BME280;51446;53.850;10.662;2023-04-06T03:09:39;101938.41;;;0.16;100.00
64933;BME280;51446;53.850;10.662;2023-04-06T03:12:05;101938.03;;;0.00;100.00
64933;BME280;51446;53.850;10.662;2023-04-06T03:14:30;101927.09;;;-0.08;100.00
64933;BME280;51446;53.850;10.662;2023-04-06T03:16:56;101931.38;;;-0.08;100.00
64933;BME280;51446;53.850;10.662;2023-04-06T03:19:21;101935.97;;;-0.04;100.00
64933;BME280;51446;53.850;10.662;2023-04-06T03:21:46;101933.31;;;-0.16;100.00
64933;BME280;51446;53.850;10.662;2023-04-06T03:24:12;101933.91;;;-0.20;100.00
64933;BME280;51446;53.850;10.662;2023-04-06T03:26:38;101939.03;;;0.02;100.00
64933;BME280;51446;53.850;10.662;2023-04-06T03:29:04;101941.06;;;-0.16;100.00
64933;BME280;51446;53.850;10.662;2023-04-06T03:31:29;101936.28;;;-0.11;100.00
64933;BME280;51446;53.850;10.662;2023-04-06T03:33:54;101942.56;;;0.14;100.00
64933;BME280;51446;53.850;10.662;2023-04-06T03:36:20;101941.56;;;-0.10;100.00
64933;BME280;51446;53.850;10.662;2023-04-06T03:38:45;101942.81;;;-0.27;100.00
64933;BME280;51446;53.850;10.662;2023-04-06T03:41:10;101935.09;;;-0.27;100.00
64933;BME280;51446;53.850;10.662;2023-04-06T03:43:35;101940.59;;;-0.44;100.00
64933;BME280;51446;53.850;10.662;2023-04-06T03:46:01;101944.28;;;-0.41;100.00
64933;BME280;51446;53.850;10.662;2023-04-06T03:48:26;101943.34;;;-0.31;100.00
64933;BME280;51446;53.850;10.662;2023-04-06T03:50:51;101948.75;;;-0.28;100.00
64933;BME280;51446;53.850;10.662;2023-04-06T03:53:16;101947.84;;;-0.28;100.00
64933;BME280;51446;53.850;10.662;2023-04-06T03:55:42;101952.25;;;-0.27;100.00
64933;BME280;51446;53.850;10.662;2023-04-06T03:58:07;101957.53;;;-0.36;100.00
64933;BME280;51446;53.850;10.662;2023-04-06T04:00:32;101949.09;;;-0.45;100.00
64933;BME280;51446;53.850;10.662;2023-04-06T04:02:58;101953.25;;;-0.58;100.00
64933;BME280;51446;53.850;10.662;2023-04-06T04:05:23;101953.53;;;-0.55;100.00
64933;BME280;51446;53.850;10.662;2023-04-06T04:07:51;101959.81;;;-0.51;100.00
64933;BME280;51446;53.850;10.662;2023-04-06T04:10:17;101954.13;;;-0.47;100.00
64933;BME280;51446;53.850;10.662;2023-04-06T04:12:42;101959.56;;;-0.54;100.00
64933;BME280;51446;53.850;10.662;2023-04-06T04:15:08;101964.06;;;-0.51;100.00
64933;BME280;51446;53.850;10.662;2023-04-06T04:17:33;101961.16;;;-0.66;100.00
64933;BME280;51446;53.850;10.662;2023-04-06T04:19:58;101958.47;;;-0.68;100.00
64933;BME280;51446;53.850;10.662;2023-04-06T04:22:23;101958.22;;;-0.71;100.00
64933;BME280;51446;53.850;10.662;2023-04-06T04:24:49;101968.69;;;-0.80;100.00
64933;BME280;51446;53.850;10.662;2023-04-06T04:27:14;101965.91;;;-0.61;100.00
64933;BME280;51446;53.850;10.662;2023-04-06T04:29:40;101968.28;;;-0.74;100.00
64933;BME280;51446;53.850;10.662;2023-04-06T04:32:05;101963.53;;;-0.80;100.00
64933;BME280;51446;53.850;10.662;2023-04-06T04:34:30;101963.00;;;-0.76;100.00
64933;BME280;51446;53.850;10.662;2023-04-06T04:36:56;101963.13;;;-0.74;100.00
64933;BME280;51446;53.850;10.662;2023-04-06T04:39:21;101965.94;;;-0.71;100.00
64933;BME280;51446;53.850;10.662;2023-04-06T04:41:47;101965.69;;;-0.74;100.00
64933;BME280;51446;53.850;10.662;2023-04-06T04:44:12;101965.19;;;-0.70;100.00
64933;BME280;51446;53.850;10.662;2023-04-06T04:46:37;101970.94;;;-0.62;100.00
64933;BME280;51446;53.850;10.662;2023-04-06T04:49:02;101963.66;;;-0.46;100.00
64933;BME280;51446;53.850;10.662;2023-04-06T04:51:28;101969.41;;;-0.38;100.00
64933;BME280;51446;53.850;10.662;2023-04-06T04:53:53;101968.53;;;-0.39;100.00
64933;BME280;51446;53.850;10.662;2023-04-06T04:56:18;101965.38;;;-0.24;100.00
64933;BME280;51446;53.850;10.662;2023-04-06T04:58:43;101961.44;;;-0.19;100.00
64933;BME280;51446;53.850;10.662;2023-04-06T05:01:08;101963.44;;;-0.05;100.00
64933;BME280;51446;53.850;10.662;2023-04-06T05:03:34;101957.72;;;0.22;100.00
64933;BME280;51446;53.850;10.662;2023-04-06T05:06:00;101969.94;;;0.58;100.00
64933;BME280;51446;53.850;10.662;2023-04-06T05:08:26;101959.75;;;0.72;100.00
64933;BME280;51446;53.850;10.662;2023-04-06T05:10:51;101954.03;;;0.76;100.00
64933;BME280;51446;53.850;10.662;2023-04-06T05:13:16;101958.09;;;0.84;100.00
64933;BME280;51446;53.850;10.662;2023-04-06T05:15:42;101952.91;;;1.08;100.00
64933;BME280;51446;53.850;10.662;2023-04-06T05:18:07;101951.22;;;1.32;100.00
64933;BME280;51446;53.850;10.662;2023-04-06T05:20:34;101944.25;;;1.31;100.00
64933;BME280;51446;53.850;10.662;2023-04-06T05:22:59;101943.91;;;1.50;100.00
64933;BME280;51446;53.850;10.662;2023-04-06T05:25:25;101947.00;;;1.69;100.00
64933;BME280;51446;53.850;10.662;2023-04-06T05:27:50;101940.59;;;2.27;100.00
64933;BME280;51446;53.850;10.662;2023-04-06T05:30:16;101944.47;;;2.33;100.00
64933;BME280;51446;53.850;10.662;2023-04-06T05:32:41;101943.63;;;2.46;100.00
64933;BME280;51446;53.850;10.662;2023-04-06T05:35:08;101935.72;;;2.83;100.00
64933;BME280;51446;53.850;10.662;2023-04-06T05:37:33;101933.31;;;3.81;100.00
64933;BME280;51446;53.850;10.662;2023-04-06T05:39:59;101936.53;;;4.06;100.00
64933;BME280;51446;53.850;10.662;2023-04-06T05:42:24;101939.34;;;3.95;100.00
64933;BME280;51446;53.850;10.662;2023-04-06T05:44:49;101935.22;;;4.12;100.00
64933;BME280;51446;53.850;10.662;2023-04-06T05:47:15;101939.72;;;4.45;100.00
64933;BME280;51446;53.850;10.662;2023-04-06T05:49:42;101938.56;;;4.55;100.00
64933;BME280;51446;53.850;10.662;2023-04-06T05:52:08;101936.25;;;4.74;100.00
64933;BME280;51446;53.850;10.662;2023-04-06T05:54:34;101933.44;;;5.01;100.00
64933;BME280;51446;53.850;10.662;2023-04-06T05:57:01;101940.38;;;4.85;100.00
64933;BME280;51446;53.850;10.662;2023-04-06T05:59:29;101928.88;;;4.97;100.00
64933;BME280;51446;53.850;10.662;2023-04-06T06:01:55;101941.06;;;4.98;100.00
64933;BME280;51446;53.850;10.662;2023-04-06T06:04:20;101941.91;;;5.28;100.00
64933;BME280;51446;53.850;10.662;2023-04-06T06:06:45;101931.31;;;6.55;100.00
64933;BME280;51446;53.850;10.662;2023-04-06T06:09:10;101931.47;;;7.11;100.00
64933;BME280;51446;53.850;10.662;2023-04-06T06:11:36;101930.78;;;7.33;100.00
64933;BME280;51446;53.850;10.662;2023-04-06T06:14:02;101929.00;;;7.14;100.00
64933;BME280;51446;53.850;10.662;2023-04-06T06:16:27;101940.38;;;7.90;100.00
64933;BME280;51446;53.850;10.662;2023-04-06T06:18:52;101943.81;;;8.28;99.75
64933;BME280;51446;53.850;10.662;2023-04-06T06:21:18;101931.28;;;9.02;94.10
64933;BME280;51446;53.850;10.662;2023-04-06T06:23:43;101943.25;;;10.09;77.97
64933;BME280;51446;53.850;10.662;2023-04-06T06:26:08;101939.81;;;9.42;82.05
64933;BME280;51446;53.850;10.662;2023-04-06T06:28:33;101945.56;;;9.77;83.02
64933;BME280;51446;53.850;10.662;2023-04-06T06:30:59;101937.22;;;9.87;75.54
64933;BME280;51446;53.850;10.662;2023-04-06T06:33:24;101933.38;;;10.01;73.60
64933;BME280;51446;53.850;10.662;2023-04-06T06:35:51;101938.06;;;10.86;72.60
64933;BME280;51446;53.850;10.662;2023-04-06T06:38:16;101931.03;;;10.57;68.08
64933;BME280;51446;53.850;10.662;2023-04-06T06:40:41;101938.06;;;10.86;67.35
64933;BME280;51446;53.850;10.662;2023-04-06T06:43:06;101933.97;;;11.79;70.31
64933;BME280;51446;53.850;10.662;2023-04-06T06:45:32;101927.66;;;13.03;55.62
64933;BME280;51446;53.850;10.662;2023-04-06T06:47:57;101923.34;;;12.70;54.48
64933;BME280;51446;53.850;10.662;2023-04-06T06:50:23;101927.41;;;12.57;53.56
64933;BME280;51446;53.850;10.662;2023-04-06T06:52:48;101926.25;;;12.81;52.13
64933;BME280;51446;53.850;10.662;2023-04-06T06:55:13;101934.78;;;13.83;48.54
64933;BME280;51446;53.850;10.662;2023-04-06T06:57:39;101926.50;;;12.92;50.13
64933;BME280;51446;53.850;10.662;2023-04-06T07:00:05;101933.38;;;13.60;48.37
64933;BME280;51446;53.850;10.662;2023-04-06T07:02:31;101924.50;;;12.81;49.35
64933;BME280;51446;53.850;10.662;2023-04-06T07:04:57;101925.84;;;13.35;49.41
64933;BME280;51446;53.850;10.662;2023-04-06T07:07:22;101920.72;;;14.29;48.85
64933;BME280;51446;53.850;10.662;2023-04-06T07:09:47;101922.50;;;14.76;45.29
64933;BME280;51446;53.850;10.662;2023-04-06T07:12:12;101923.03;;;13.31;46.80
64933;BME280;51446;53.850;10.662;2023-04-06T07:14:37;101923.59;;;14.88;44.72
64933;BME280;51446;53.850;10.662;2023-04-06T07:17:03;101934.44;;;15.07;44.00
64933;BME280;51446;53.850;10.662;2023-04-06T07:19:28;101915.81;;;15.57;40.84
64933;BME280;51446;53.850;10.662;2023-04-06T07:21:53;101916.75;;;15.64;41.01
64933;BME280;51446;53.850;10.662;2023-04-06T07:24:19;101916.13;;;15.81;40.59
64933;BME280;51446;53.850;10.662;2023-04-06T07:26:44;101917.56;;;15.60;41.31
64933;BME280;51446;53.850;10.662;2023-04-06T07:29:09;101920.09;;;16.20;38.35
64933;BME280;51446;53.850;10.662;2023-04-06T07:31:34;101919.81;;;15.93;38.97
64933;BME280;51446;53.850;10.662;2023-04-06T07:34:01;101916.63;;;15.53;39.84
64933;BME280;51446;53.850;10.662;2023-04-06T07:36:26;101922.31;;;15.20;40.55
64933;BME280;51446;53.850;10.662;2023-04-06T07:38:51;101918.22;;;15.42;40.13
64933;BME280;51446;53.850;10.662;2023-04-06T07:41:17;101917.22;;;16.00;38.60
64933;BME280;51446;53.850;10.662;2023-04-06T07:43:42;101918.53;;;16.37;38.75
64933;BME280;51446;53.850;10.662;2023-04-06T07:46:07;101912.16;;;16.20;36.86
64933;BME280;51446;53.850;10.662;2023-04-06T07:48:32;101907.66;;;16.11;37.50
64933;BME280;51446;53.850;10.662;2023-04-06T07:51:02;101913.69;;;15.33;38.06
64933;BME280;51446;53.850;10.662;2023-04-06T07:53:27;101917.00;;;15.80;39.17
64933;BME280;51446;53.850;10.662;2023-04-06T07:55:53;101908.91;;;16.44;37.58
64933;BME280;51446;53.850;10.662;2023-04-06T07:58:18;101905.47;;;16.57;36.17
64933;BME280;51446;53.850;10.662;2023-04-06T08:00:43;101909.47;;;17.07;37.31
64933;BME280;51446;53.850;10.662;2023-04-06T08:03:09;101906.75;;;17.01;36.59
64933;BME280;51446;53.850;10.662;2023-04-06T08:05:34;101901.78;;;17.52;35.00
64933;BME280;51446;53.850;10.662;2023-04-06T08:07:59;101907.94;;;17.48;35.87
64933;BME280;51446;53.850;10.662;2023-04-06T08:10:25;101909.94;;;17.91;34.50
64933;BME280;51446;53.850;10.662;2023-04-06T08:12:50;101909.59;;;17.30;33.83
64933;BME280;51446;53.850;10.662;2023-04-06T08:15:15;101916.78;;;17.51;33.46
64933;BME280;51446;53.850;10.662;2023-04-06T08:17:43;101913.59;;;16.79;33.11
64933;BME280;51446;53.850;10.662;2023-04-06T08:20:08;101922.66;;;15.44;34.64
64933;BME280;51446;53.850;10.662;2023-04-06T08:22:34;101914.97;;;16.34;36.31
64933;BME280;51446;53.850;10.662;2023-04-06T08:24:59;101907.13;;;16.44;36.03
64933;BME280;51446;53.850;10.662;2023-04-06T08:27:24;101912.00;;;16.06;34.52
64933;BME280;51446;53.850;10.662;2023-04-06T08:29:50;101910.97;;;15.94;36.65
64933;BME280;51446;53.850;10.662;2023-04-06T08:32:16;101906.03;;;16.22;34.51
64933;BME280;51446;53.850;10.662;2023-04-06T08:34:41;101904.94;;;16.03;35.41
64933;BME280;51446;53.850;10.662;2023-04-06T08:37:06;101900.59;;;16.10;35.25
64933;BME280;51446;53.850;10.662;2023-04-06T08:39:31;101903.03;;;16.80;34.16
64933;BME280;51446;53.850;10.662;2023-04-06T08:41:59;101905.31;;;16.42;34.06
64933;BME280;51446;53.850;10.662;2023-04-06T08:44:25;101905.69;;;15.93;35.44
64933;BME280;51446;53.850;10.662;2023-04-06T08:46:51;101909.59;;;14.44;37.45
64933;BME280;51446;53.850;10.662;2023-04-06T08:49:17;101906.63;;;14.74;36.75
64933;BME280;51446;53.850;10.662;2023-04-06T08:51:43;101920.53;;;14.64;37.68
64933;BME280;51446;53.850;10.662;2023-04-06T08:54:09;101906.41;;;14.62;37.14
64933;BME280;51446;53.850;10.662;2023-04-06T08:56:38;101905.78;;;16.01;36.40
64933;BME280;51446;53.850;10.662;2023-04-06T08:59:04;101907.72;;;16.16;33.24
64933;BME280;51446;53.850;10.662;2023-04-06T09:01:30;101903.22;;;14.81;35.22
64933;BME280;51446;53.850;10.662;2023-04-06T09:03:59;101905.69;;;13.79;35.95
64933;BME280;51446;53.850;10.662;2023-04-06T09:06:26;101899.09;;;14.99;35.49
64933;BME280;51446;53.850;10.662;2023-04-06T09:08:56;101897.09;;;15.43;34.68
64933;BME280;51446;53.850;10.662;2023-04-06T09:11:21;101887.28;;;16.01;33.37
64933;BME280;51446;53.850;10.662;2023-04-06T09:13:52;101900.47;;;15.33;33.34
64933;BME280;51446;53.850;10.662;2023-04-06T09:16:18;101901.25;;;15.24;32.71
64933;BME280;51446;53.850;10.662;2023-04-06T09:18:45;101884.31;;;15.12;32.57
64933;BME280;51446;53.850;10.662;2023-04-06T09:21:10;101895.00;;;14.64;31.50
64933;BME280;51446;53.850;10.662;2023-04-06T09:23:36;101893.09;;;14.08;32.01
64933;BME280;51446;53.850;10.662;2023-04-06T09:26:09;101880.22;;;15.34;30.92
64933;BME280;51446;53.850;10.662;2023-04-06T09:29:01;101879.47;;;14.83;31.59
64933;BME280;51446;53.850;10.662;2023-04-06T09:31:28;101895.06;;;14.69;32.61
64933;BME280;51446;53.850;10.662;2023-04-06T09:33:54;101875.31;;;13.98;32.63
64933;BME280;51446;53.850;10.662;2023-04-06T09:36:20;101892.72;;;13.47;31.29
64933;BME280;51446;53.850;10.662;2023-04-06T09:38:55;101879.78;;;14.02;31.41
64933;BME280;51446;53.850;10.662;2023-04-06T09:41:27;101886.03;;;14.56;28.58
64933;BME280;51446;53.850;10.662;2023-04-06T09:44:07;101889.09;;;14.30;29.48
64933;BME280;51446;53.850;10.662;2023-04-06T09:46:37;101893.31;;;14.19;29.74
64933;BME280;51446;53.850;10.662;2023-04-06T09:49:04;101880.91;;;13.70;30.92
64933;BME280;51446;53.850;10.662;2023-04-06T09:51:33;101874.22;;;14.34;29.90
64933;BME280;51446;53.850;10.662;2023-04-06T09:54:01;101866.94;;;15.29;30.09
64933;BME280;51446;53.850;10.662;2023-04-06T09:56:30;101877.84;;;14.91;29.32
64933;BME280;51446;53.850;10.662;2023-04-06T09:59:02;101874.72;;;14.62;29.85
64933;BME280;51446;53.850;10.662;2023-04-06T10:01:32;101875.66;;;14.64;29.62
64933;BME280;51446;53.850;10.662;2023-04-06T10:04:27;101877.59;;;14.76;29.22
64933;BME280;51446;53.850;10.662;2023-04-06T10:06:57;101868.63;;;14.66;29.80
64933;BME280;51446;53.850;10.662;2023-04-06T10:09:25;101866.00;;;14.18;29.90
64933;BME280;51446;53.850;10.662;2023-04-06T10:11:53;101871.13;;;15.13;29.45
64933;BME280;51446;53.850;10.662;2023-04-06T10:14:19;101864.06;;;15.12;28.92
64933;BME280;51446;53.850;10.662;2023-04-06T10:16:46;101864.56;;;15.49;29.34
64933;BME280;51446;53.850;10.662;2023-04-06T10:19:25;101868.28;;;14.99;28.25
64933;BME280;51446;53.850;10.662;2023-04-06T10:21:55;101856.06;;;14.03;29.58
64933;BME280;51446;53.850;10.662;2023-04-06T10:24:21;101872.22;;;14.69;29.42
64933;BME280;51446;53.850;10.662;2023-04-06T10:27:03;101852.22;;;14.33;29.37
64933;BME280;51446;53.850;10.662;2023-04-06T10:29:44;101867.19;;;14.86;28.97
64933;BME280;51446;53.850;10.662;2023-04-06T10:32:10;101866.94;;;15.27;28.75
64933;BME280;51446;53.850;10.662;2023-04-06T10:34:35;101859.25;;;15.48;28.78
64933;BME280;51446;53.850;10.662;2023-04-06T10:37:11;101853.19;;;15.53;28.63
64933;BME280;51446;53.850;10.662;2023-04-06T10:39:45;101864.72;;;14.96;29.09
64933;BME280;51446;53.850;10.662;2023-04-06T10:42:11;101856.38;;;15.29;29.94
64933;BME280;51446;53.850;10.662;2023-04-06T10:44:42;101846.91;;;14.82;28.61
64933;BME280;51446;53.850;10.662;2023-04-06T10:47:16;101847.31;;;15.12;27.98
64933;BME280;51446;53.850;10.662;2023-04-06T10:49:42;101841.03;;;13.98;29.20
64933;BME280;51446;53.850;10.662;2023-04-06T10:52:07;101864.78;;;13.57;29.55
64933;BME280;51446;53.850;10.662;2023-04-06T10:54:33;101846.78;;;14.26;29.43
64933;BME280;51446;53.850;10.662;2023-04-06T10:56:58;101853.84;;;14.27;28.35
64933;BME280;51446;53.850;10.662;2023-04-06T10:59:23;101860.28;;;14.95;28.67
64933;BME280;51446;53.850;10.662;2023-04-06T11:01:50;101845.94;;;13.79;28.67
64933;BME280;51446;53.850;10.662;2023-04-06T11:04:16;101851.25;;;14.28;27.97
64933;BME280;51446;53.850;10.662;2023-04-06T11:06:49;101831.97;;;13.83;28.53
64933;BME280;51446;53.850;10.662;2023-04-06T11:09:28;101840.59;;;13.76;28.26
64933;BME280;51446;53.850;10.662;2023-04-06T11:11:53;101841.78;;;14.39;27.93
64933;BME280;51446;53.850;10.662;2023-04-06T11:14:20;101848.94;;;14.48;27.88
64933;BME280;51446;53.850;10.662;2023-04-06T11:16:47;101843.75;;;14.53;28.65
64933;BME280;51446;53.850;10.662;2023-04-06T11:19:13;101828.88;;;15.16;27.43
64933;BME280;51446;53.850;10.662;2023-04-06T11:21:40;101832.53;;;15.24;28.91
64933;BME280;51446;53.850;10.662;2023-04-06T11:24:22;101825.25;;;15.09;27.67
64933;BME280;51446;53.850;10.662;2023-04-06T11:26:53;101840.28;;;14.55;28.24
64933;BME280;51446;53.850;10.662;2023-04-06T11:29:21;101829.13;;;14.73;28.97
64933;BME280;51446;53.850;10.662;2023-04-06T11:31:48;101831.03;;;15.47;28.24
64933;BME280;51446;53.850;10.662;2023-04-06T11:34:20;101838.31;;;14.44;29.51
64933;BME280;51446;53.850;10.662;2023-04-06T11:36:48;101823.59;;;14.56;29.48
64933;BME280;51446;53.850;10.662;2023-04-06T11:39:20;101821.53;;;14.40;28.50
64933;BME280;51446;53.850;10.662;2023-04-06T11:41:49;101818.81;;;14.35;28.54
64933;BME280;51446;53.850;10.662;2023-04-06T11:44:15;101810.31;;;14.03;28.90
64933;BME280;51446;53.850;10.662;2023-04-06T11:46:40;101818.19;;;14.00;29.27
64933;BME280;51446;53.850;10.662;2023-04-06T11:49:05;101819.63;;;14.31;29.16
64933;BME280;51446;53.850;10.662;2023-04-06T11:51:35;101807.50;;;14.43;29.65
64933;BME280;51446;53.850;10.662;2023-04-06T11:54:01;101826.97;;;13.97;29.88
64933;BME280;51446;53.850;10.662;2023-04-06T11:56:29;101815.09;;;14.74;29.45
64933;BME280;51446;53.850;10.662;2023-04-06T11:58:58;101814.47;;;14.93;29.88
64933;BME280;51446;53.850;10.662;2023-04-06T12:01:25;101812.81;;;15.01;29.30
64933;BME280;51446;53.850;10.662;2023-04-06T12:03:51;101807.72;;;14.55;29.96
64933;BME280;51446;53.850;10.662;2023-04-06T12:06:17;101813.38;;;14.77;31.00
64933;BME280;51446;53.850;10.662;2023-04-06T12:08:42;101800.84;;;14.14;29.41
64933;BME280;51446;53.850;10.662;2023-04-06T12:11:08;101811.00;;;14.42;29.42
64933;BME280;51446;53.850;10.662;2023-04-06T12:13:33;101802.47;;;14.56;28.91
64933;BME280;51446;53.850;10.662;2023-04-06T12:15:58;101802.59;;;14.64;28.95
64933;BME280;51446;53.850;10.662;2023-04-06T12:18:23;101806.09;;;14.63;29.37
64933;BME280;51446;53.850;10.662;2023-04-06T12:20:51;101802.19;;;14.39;29.25
64933;BME280;51446;53.850;10.662;2023-04-06T12:23:16;101807.81;;;14.09;29.77
64933;BME280;51446;53.850;10.662;2023-04-06T12:25:42;101800.31;;;14.34;31.20
64933;BME280;51446;53.850;10.662;2023-04-06T12:28:07;101813.88;;;14.55;29.28
64933;BME280;51446;53.850;10.662;2023-04-06T12:30:34;101802.84;;;13.77;31.17
64933;BME280;51446;53.850;10.662;2023-04-06T12:32:59;101796.25;;;14.01;30.60